Time;durP1;ratioP1;P1;durP2;ratioP2;P2;SDS_P1;SDS_P2;PMS_P1;PMS_P2;Temp;Humidity;BMP_temperature;BMP_pressure;BME280_temperature;BME280_humidity;BME280_pressure;Samples;Min_cycle;Max_cycle;Signal;HPM_P1;HPM_P2
2021/04/05 00:00:59;;;;;;;34.80;11.93;;;4.10;99.90;;;;;;5066993;28;20215;-62
2021/04/05 00:03:27;;;;;;;29.80;11.90;;;4.10;99.90;;;;;;5067894;28;20199;-63
2021/04/05 00:05:54;;;;;;;31.80;11.53;;;4.10;99.90;;;;;;5067006;28;20188;-63
2021/04/05 00:08:21;;;;;;;24.87;12.07;;;4.10;99.90;;;;;;5059624;28;20192;-61
2021/04/05 00:10:52;;;;;;;28.10;12.00;;;4.10;99.90;;;;;;5063963;28;20270;-63
2021/04/05 00:13:23;;;;;;;36.27;12.47;;;4.10;99.90;;;;;;5067462;28;20290;-62
2021/04/05 00:15:51;;;;;;;31.87;11.53;;;4.00;99.90;;;;;;5066089;28;20240;-62
2021/04/05 00:18:18;;;;;;;31.03;11.70;;;4.00;99.90;;;;;;5067474;28;20282;-61
2021/04/05 00:20:50;;;;;;;33.00;12.23;;;4.00;99.90;;;;;;5066121;28;20639;-61
2021/04/05 00:23:18;;;;;;;36.77;12.20;;;4.00;99.90;;;;;;5068538;28;20200;-62
2021/04/05 00:25:45;;;;;;;38.37;12.53;;;4.00;99.90;;;;;;5062896;28;20237;-64
2021/04/05 00:28:14;;;;;;;33.73;12.10;;;4.00;99.90;;;;;;5068558;28;20694;-62
2021/04/05 00:30:42;;;;;;;26.97;11.57;;;4.00;99.90;;;;;;5065567;28;20188;-63
2021/04/05 00:33:09;;;;;;;29.20;12.40;;;4.10;99.90;;;;;;5068722;28;20299;-62
2021/04/05 00:35:39;;;;;;;35.73;12.73;;;4.10;99.90;;;;;;5061843;28;20214;-61
2021/04/05 00:38:08;;;;;;;32.80;13.03;;;4.10;99.90;;;;;;5064971;28;20188;-61
2021/04/05 00:40:38;;;;;;;25.00;11.90;;;4.10;99.90;;;;;;5066832;28;20212;-62
2021/04/05 00:43:07;;;;;;;34.07;12.50;;;4.20;99.90;;;;;;5068342;28;20210;-64
2021/04/05 00:45:37;;;;;;;27.87;12.57;;;4.20;99.90;;;;;;5069894;28;20271;-62
2021/04/05 00:48:06;;;;;;;32.70;12.83;;;4.20;99.90;;;;;;5071356;28;20184;-61
2021/04/05 00:50:41;;;;;;;31.67;12.07;;;4.20;99.90;;;;;;5067569;28;20249;-61
2021/04/05 00:53:10;;;;;;;31.37;12.53;;;4.20;99.90;;;;;;5069804;28;20195;-63
2021/04/05 00:55:39;;;;;;;36.43;11.87;;;4.20;99.90;;;;;;5064487;28;20556;-62
2021/04/05 00:58:06;;;;;;;30.83;13.10;;;4.20;99.90;;;;;;5068219;28;20698;-62
2021/04/05 01:00:39;;;;;;;42.07;13.10;;;4.20;99.90;;;;;;5065206;28;20216;-61
2021/04/05 01:03:08;;;;;;;28.93;11.80;;;4.20;99.90;;;;;;5066283;28;20193;-62
2021/04/05 01:05:36;;;;;;;36.00;13.10;;;4.20;99.90;;;;;;5063565;28;20249;-60
2021/04/05 01:08:04;;;;;;;33.80;13.43;;;4.20;99.90;;;;;;5068841;28;20204;-62
2021/04/05 01:10:32;;;;;;;42.23;13.87;;;4.20;99.90;;;;;;5065349;28;20220;-61
2021/04/05 01:13:00;;;;;;;29.97;13.03;;;4.10;99.90;;;;;;5067924;28;20272;-62
2021/04/05 01:15:28;;;;;;;37.50;14.43;;;4.10;99.90;;;;;;5068832;28;20740;-61
2021/04/05 01:17:56;;;;;;;42.67;14.13;;;4.10;99.90;;;;;;5069157;28;20720;-61
2021/04/05 01:20:24;;;;;;;30.33;12.80;;;4.10;99.90;;;;;;5068336;28;20216;-61
2021/04/05 01:22:53;;;;;;;43.57;14.40;;;4.10;99.90;;;;;;5068688;28;20776;-64
2021/04/05 01:25:22;;;;;;;41.27;14.80;;;4.10;99.90;;;;;;5063974;28;20329;-61
2021/04/05 01:27:51;;;;;;;36.93;14.20;;;4.10;99.90;;;;;;5068195;28;20586;-62
2021/04/05 01:30:34;;;;;;;39.40;13.87;;;4.10;99.90;;;;;;5070580;28;20196;-62
2021/04/05 01:33:06;;;;;;;37.43;14.53;;;4.10;99.90;;;;;;5067833;28;20647;-63
2021/04/05 01:35:44;;;;;;;40.07;14.77;;;4.20;99.90;;;;;;5067662;28;20200;-62
2021/04/05 01:38:13;;;;;;;39.40;14.20;;;4.10;99.90;;;;;;5068786;28;20196;-61
2021/04/05 01:40:43;;;;;;;40.50;15.57;;;4.10;99.90;;;;;;5069327;28;20295;-62
2021/04/05 01:43:11;;;;;;;38.73;14.83;;;4.10;99.90;;;;;;5069336;28;20198;-64
2021/04/05 01:45:39;;;;;;;36.20;15.17;;;4.10;99.90;;;;;;5069362;28;20223;-64
2021/04/05 01:48:08;;;;;;;52.37;15.40;;;4.10;99.90;;;;;;5068324;28;20219;-64
2021/04/05 01:50:36;;;;;;;42.27;16.77;;;4.10;99.90;;;;;;5068681;28;20279;-63
2021/04/05 01:53:05;;;;;;;42.33;15.97;;;4.10;99.90;;;;;;5070095;28;20275;-63
2021/04/05 01:55:34;;;;;;;47.93;16.40;;;4.10;99.90;;;;;;5068146;28;20198;-63
2021/04/05 01:58:02;;;;;;;43.83;16.67;;;4.10;99.90;;;;;;5067378;28;20597;-64
2021/04/05 02:00:34;;;;;;;45.03;16.37;;;4.20;99.90;;;;;;5067761;28;20302;-63
2021/04/05 02:03:05;;;;;;;44.60;17.57;;;4.10;99.90;;;;;;5069087;28;20627;-63
2021/04/05 02:05:35;;;;;;;39.97;16.33;;;4.10;99.90;;;;;;5069327;28;20195;-64
2021/04/05 02:08:06;;;;;;;45.73;16.23;;;4.10;99.90;;;;;;5064470;28;20192;-64
2021/04/05 02:10:34;;;;;;;52.00;19.17;;;4.10;99.90;;;;;;5067169;28;20188;-63
2021/04/05 02:13:03;;;;;;;46.87;17.50;;;4.10;99.90;;;;;;5067267;28;20283;-63
2021/04/05 02:15:34;;;;;;;47.07;17.93;;;4.20;99.90;;;;;;5067168;28;20242;-63
2021/04/05 02:18:02;;;;;;;46.70;18.07;;;4.20;99.90;;;;;;5068861;28;20654;-62
2021/04/05 02:20:30;;;;;;;51.90;18.50;;;4.20;99.90;;;;;;5068873;28;20286;-62
2021/04/05 02:22:59;;;;;;;54.00;18.10;;;4.10;99.90;;;;;;5067153;28;20219;-63
2021/04/05 02:25:29;;;;;;;53.20;18.63;;;4.10;99.90;;;;;;5068015;28;20196;-63
2021/04/05 02:27:58;;;;;;;51.33;19.40;;;4.10;99.90;;;;;;5068574;28;20218;-63
2021/04/05 02:30:27;;;;;;;52.07;18.23;;;4.20;99.90;;;;;;5066743;28;20746;-63
2021/04/05 02:32:57;;;;;;;47.33;18.23;;;4.20;99.90;;;;;;5068887;28;20188;-63
2021/04/05 02:35:26;;;;;;;53.93;18.60;;;4.20;99.90;;;;;;5068315;28;20254;-63
2021/04/05 02:37:56;;;;;;;43.53;20.20;;;4.20;99.90;;;;;;5050691;28;20227;-63
2021/04/05 02:40:24;;;;;;;60.20;19.83;;;4.20;99.90;;;;;;5065705;28;20199;-63
2021/04/05 02:42:53;;;;;;;45.00;18.90;;;4.30;99.90;;;;;;5067252;28;20192;-63
2021/04/05 02:45:24;;;;;;;61.90;21.20;;;4.30;99.90;;;;;;5068606;28;20638;-63
2021/04/05 02:47:55;;;;;;;48.77;20.50;;;4.30;99.90;;;;;;5068174;28;20196;-63
2021/04/05 02:50:27;;;;;;;63.90;21.10;;;4.30;99.90;;;;;;5068558;28;20223;-63
2021/04/05 02:52:56;;;;;;;52.73;21.07;;;4.30;99.90;;;;;;5066912;28;20207;-63
2021/04/05 02:55:24;;;;;;;56.17;21.47;;;4.30;99.90;;;;;;5067179;28;20192;-63
2021/04/05 02:57:52;;;;;;;53.63;20.20;;;4.30;99.90;;;;;;5064833;28;20223;-63
2021/04/05 03:00:22;;;;;;;51.27;20.87;;;4.20;99.90;;;;;;5065968;28;20248;-63
2021/04/05 03:02:52;;;;;;;61.23;22.27;;;4.30;99.90;;;;;;5067998;28;20192;-63
2021/04/05 03:05:22;;;;;;;57.53;21.73;;;4.30;99.90;;;;;;5067171;28;20246;-63
2021/04/05 03:07:50;;;;;;;64.77;22.30;;;4.30;99.90;;;;;;5068740;28;20720;-63
2021/04/05 03:10:19;;;;;;;62.47;23.10;;;4.30;99.90;;;;;;5065177;28;20238;-62
2021/04/05 03:12:50;;;;;;;65.77;22.53;;;4.30;99.90;;;;;;5067537;28;20200;-63
2021/04/05 03:15:18;;;;;;;58.53;23.50;;;4.30;99.90;;;;;;5065575;28;20316;-63
2021/04/05 03:17:49;;;;;;;61.07;22.30;;;4.30;99.90;;;;;;5068619;28;20265;-63
2021/04/05 03:20:19;;;;;;;65.20;24.13;;;4.40;99.90;;;;;;5066223;28;20729;-62
2021/04/05 03:22:47;;;;;;;60.73;23.13;;;4.40;99.90;;;;;;5058173;28;20546;-63
2021/04/05 03:25:18;;;;;;;66.77;23.97;;;4.50;99.90;;;;;;5066946;28;20249;-63
2021/04/05 03:27:46;;;;;;;71.33;23.33;;;4.70;99.90;;;;;;5066968;28;20224;-63
2021/04/05 03:30:20;;;;;;;68.93;23.37;;;4.80;99.90;;;;;;5067722;28;20195;-63
2021/04/05 03:32:52;;;;;;;61.90;24.20;;;4.90;99.90;;;;;;5063992;28;20651;-62
2021/04/05 03:35:25;;;;;;;65.27;24.13;;;5.10;99.90;;;;;;5064988;28;20196;-63
2021/04/05 03:37:55;;;;;;;70.73;23.50;;;5.10;99.90;;;;;;5060627;28;20283;-63
2021/04/05 03:40:23;;;;;;;64.43;22.50;;;5.10;99.90;;;;;;5064427;28;20195;-63
2021/04/05 03:42:58;;;;;;;74.70;24.33;;;5.10;99.90;;;;;;5062918;28;20187;-62
2021/04/05 03:45:35;;;;;;;58.20;23.03;;;5.10;99.90;;;;;;5066590;28;20691;-63
2021/04/05 03:48:10;;;;;;;67.13;23.30;;;5.10;99.90;;;;;;5064479;28;20199;-63
2021/04/05 03:50:44;;;;;;;60.57;22.23;;;5.20;99.90;;;;;;5066772;28;20282;-63
2021/04/05 03:53:18;;;;;;;57.30;22.20;;;5.20;99.90;;;;;;5067356;28;20547;-63
2021/04/05 03:55:50;;;;;;;62.93;22.20;;;5.20;99.90;;;;;;5062730;28;20567;-63
2021/04/05 03:58:20;;;;;;;67.60;22.80;;;5.20;99.90;;;;;;5064712;28;20207;-62
2021/04/05 04:00:49;;;;;;;57.73;22.80;;;5.20;99.90;;;;;;5062695;28;20258;-63
2021/04/05 04:03:28;;;;;;;64.33;22.87;;;5.30;99.90;;;;;;5066873;28;20196;-63
2021/04/05 04:06:00;;;;;;;73.83;22.43;;;5.20;99.90;;;;;;5066228;28;20198;-62
2021/04/05 04:08:33;;;;;;;70.60;22.87;;;5.20;99.90;;;;;;5064158;28;20716;-62
2021/04/05 04:11:06;;;;;;;64.67;22.80;;;5.30;99.90;;;;;;5066387;28;20192;-63
2021/04/05 04:13:39;;;;;;;65.27;23.00;;;5.30;99.90;;;;;;5060505;28;20235;-60
2021/04/05 04:16:10;;;;;;;64.20;23.47;;;5.30;99.90;;;;;;5070402;28;20232;-63
2021/04/05 04:18:38;;;;;;;66.73;24.27;;;5.30;99.90;;;;;;5081454;28;20283;-63
2021/04/05 04:21:08;;;;;;;66.63;23.60;;;5.30;99.90;;;;;;5069785;28;20224;-64
2021/04/05 04:23:36;;;;;;;80.50;24.27;;;5.40;99.90;;;;;;5070443;28;20188;-62
2021/04/05 04:26:04;;;;;;;64.90;22.80;;;5.30;99.90;;;;;;5079231;28;20200;-63
2021/04/05 04:28:32;;;;;;;73.93;24.60;;;5.30;99.90;;;;;;5073792;28;20560;-63
2021/04/05 04:31:02;;;;;;;63.63;25.00;;;5.40;99.90;;;;;;5075487;28;20183;-63
2021/04/05 04:33:31;;;;;;;62.23;23.73;;;5.50;99.90;;;;;;5076751;28;20226;-63
2021/04/05 04:35:59;;;;;;;66.80;23.93;;;5.60;99.90;;;;;;5066663;28;20192;-63
2021/04/05 04:38:28;;;;;;;60.00;23.70;;;5.60;99.90;;;;;;5083215;28;20217;-63
2021/04/05 04:40:55;;;;;;;58.87;24.07;;;5.70;99.90;;;;;;5087503;28;20853;-63
2021/04/05 04:43:23;;;;;;;60.37;23.67;;;5.70;99.90;;;;;;5075823;28;20612;-62
2021/04/05 04:45:50;;;;;;;56.37;23.07;;;5.80;99.90;;;;;;5068409;28;20222;-63
2021/04/05 04:48:19;;;;;;;60.47;23.60;;;5.80;99.90;;;;;;5072063;28;20542;-63
2021/04/05 04:50:46;;;;;;;63.97;24.33;;;5.80;99.90;;;;;;5068743;28;20210;-63
2021/04/05 04:53:15;;;;;;;55.47;22.53;;;5.80;99.90;;;;;;5069148;28;20184;-64
2021/04/05 04:55:43;;;;;;;63.53;23.80;;;5.90;99.90;;;;;;5063659;28;20193;-63
2021/04/05 04:58:10;;;;;;;69.27;23.97;;;6.00;99.90;;;;;;5071076;28;20219;-63
2021/04/05 05:00:38;;;;;;;62.13;23.63;;;6.00;99.90;;;;;;5066876;28;20291;-63
2021/04/05 05:03:06;;;;;;;57.43;21.93;;;6.10;99.90;;;;;;5070715;28;20203;-63
2021/04/05 05:05:35;;;;;;;62.43;22.60;;;6.20;99.90;;;;;;5063727;28;20279;-63
2021/04/05 05:08:05;;;;;;;59.57;22.20;;;6.20;99.90;;;;;;5065959;28;20215;-62
2021/04/05 05:10:34;;;;;;;52.90;21.60;;;6.30;99.90;;;;;;5070373;28;20258;-63
2021/04/05 05:13:03;;;;;;;51.73;22.73;;;6.30;99.90;;;;;;5070174;28;20540;-63
2021/04/05 05:15:32;;;;;;;60.80;22.43;;;6.30;99.90;;;;;;5070599;28;20227;-63
2021/04/05 05:18:00;;;;;;;53.27;21.70;;;6.40;99.90;;;;;;5051956;28;20269;-63
2021/04/05 05:20:27;;;;;;;54.67;21.50;;;6.40;99.90;;;;;;5069966;28;20192;-63
2021/04/05 05:22:59;;;;;;;54.13;21.33;;;6.50;99.90;;;;;;5049451;28;20625;-63
2021/04/05 05:25:27;;;;;;;60.97;22.37;;;6.50;99.90;;;;;;5070157;28;20191;-63
2021/04/05 05:28:01;;;;;;;51.57;21.60;;;6.50;99.90;;;;;;5071754;28;20720;-63
2021/04/05 05:30:29;;;;;;;54.73;19.97;;;6.60;99.90;;;;;;5070100;28;20666;-63
2021/04/05 05:33:01;;;;;;;49.33;20.30;;;6.60;99.90;;;;;;5069305;28;20311;-63
2021/04/05 05:35:28;;;;;;;54.63;20.93;;;6.70;99.90;;;;;;5066598;28;20608;-63
2021/04/05 05:38:00;;;;;;;50.43;20.43;;;6.70;99.90;;;;;;5069731;28;20819;-63
2021/04/05 05:40:28;;;;;;;51.53;21.07;;;6.70;99.90;;;;;;5071928;28;20736;-63
2021/04/05 05:43:05;;;;;;;50.73;20.30;;;6.70;99.90;;;;;;5074509;28;20211;-63
2021/04/05 05:45:39;;;;;;;43.80;19.90;;;6.70;99.90;;;;;;5066177;28;20215;-63
2021/04/05 05:48:15;;;;;;;52.33;20.37;;;6.70;99.90;;;;;;5081695;28;20688;-63
2021/04/05 05:50:53;;;;;;;42.03;20.17;;;6.70;99.90;;;;;;5071049;28;20192;-63
2021/04/05 05:53:36;;;;;;;51.73;20.33;;;6.70;99.90;;;;;;5070986;28;20309;-63
2021/04/05 05:56:18;;;;;;;49.07;19.97;;;6.70;99.90;;;;;;5065835;28;20732;-63
2021/04/05 05:58:54;;;;;;;51.87;20.47;;;6.70;99.90;;;;;;5067658;28;20204;-63
2021/04/05 06:01:31;;;;;;;44.07;19.10;;;6.80;99.90;;;;;;5066736;28;20219;-63
2021/04/05 06:04:06;;;;;;;45.10;18.87;;;6.80;99.90;;;;;;5073225;28;20265;-63
2021/04/05 06:06:49;;;;;;;46.53;20.20;;;6.80;99.90;;;;;;5085600;28;20207;-63
2021/04/05 06:09:27;;;;;;;45.57;18.37;;;6.80;99.90;;;;;;5061498;28;20251;-63
2021/04/05 06:11:59;;;;;;;41.83;19.47;;;6.90;99.90;;;;;;5066854;28;20621;-63
2021/04/05 06:14:41;;;;;;;52.03;19.00;;;6.90;99.90;;;;;;5068078;28;20291;-63
2021/04/05 06:17:20;;;;;;;43.80;17.33;;;6.90;99.90;;;;;;5069355;28;20227;-63
2021/04/05 06:19:51;;;;;;;43.80;17.87;;;7.00;99.90;;;;;;5067556;28;20192;-63
2021/04/05 06:22:27;;;;;;;41.37;18.83;;;7.10;99.90;;;;;;5068886;28;20660;-63
2021/04/05 06:25:04;;;;;;;42.20;18.97;;;7.10;99.90;;;;;;5066929;28;20857;-63
2021/04/05 06:27:52;;;;;;;40.87;17.40;;;7.10;99.90;;;;;;5066608;28;20199;-63
2021/04/05 06:30:25;;;;;;;37.70;17.60;;;7.20;99.90;;;;;;5065286;28;20196;-63
2021/04/05 06:33:00;;;;;;;42.47;17.97;;;7.20;99.90;;;;;;5064411;28;20247;-63
2021/04/05 06:36:00;;;;;;;38.97;17.60;;;7.20;99.90;;;;;;5073714;28;20226;-63
2021/04/05 06:38:33;;;;;;;38.60;17.43;;;7.30;99.90;;;;;;5069540;28;20200;-63
2021/04/05 06:41:17;;;;;;;36.17;16.30;;;7.30;99.90;;;;;;5066582;28;20214;-63
2021/04/05 06:44:13;;;;;;;41.77;16.47;;;7.30;99.90;;;;;;5060843;28;20246;-63
2021/04/05 06:47:15;;;;;;;37.57;15.67;;;7.30;99.90;;;;;;5070206;28;20240;-60
2021/04/05 06:50:14;;;;;;;36.93;15.17;;;7.40;99.90;;;;;;5063614;28;20278;-63
2021/04/05 06:53:01;;;;;;;38.80;15.87;;;7.40;99.90;;;;;;5070049;28;20651;-62
2021/04/05 06:55:38;;;;;;;37.57;15.03;;;7.40;99.90;;;;;;5070346;28;20230;-64
2021/04/05 06:58:32;;;;;;;31.40;14.17;;;7.50;99.90;;;;;;5067256;28;20672;-63
2021/04/05 07:01:24;;;;;;;29.87;13.80;;;7.50;99.90;;;;;;5067479;28;20596;-63
2021/04/05 07:04:20;;;;;;;35.93;13.97;;;7.50;99.90;;;;;;5060162;28;20282;-63
2021/04/05 07:06:54;;;;;;;29.20;13.63;;;7.50;99.90;;;;;;5067158;28;20204;-63
2021/04/05 07:09:35;;;;;;;28.70;13.03;;;7.50;99.90;;;;;;5066362;28;20614;-64
2021/04/05 07:12:32;;;;;;;32.57;11.17;;;7.50;99.90;;;;;;5065889;28;20207;-63
2021/04/05 07:15:13;;;;;;;13.00;5.77;;;7.40;99.90;;;;;;5062771;28;20234;-63
2021/04/05 07:17:50;;;;;;;14.03;5.10;;;7.20;99.90;;;;;;5067243;28;20249;-64
2021/04/05 07:20:25;;;;;;;15.67;4.43;;;6.90;99.90;;;;;;5065033;28;20251;-62
2021/04/05 07:23:00;;;;;;;10.80;4.50;;;6.70;99.90;;;;;;5066364;28;20219;-63
2021/04/05 07:25:37;;;;;;;15.33;4.63;;;6.60;99.90;;;;;;5066667;28;20193;-63
2021/04/05 07:28:15;;;;;;;11.30;4.30;;;6.50;99.90;;;;;;5073580;28;20223;-64
2021/04/05 07:30:48;;;;;;;14.80;3.90;;;6.40;99.90;;;;;;5073007;28;20227;-61
2021/04/05 07:33:26;;;;;;;17.30;4.57;;;6.40;99.90;;;;;;5064179;28;20501;-61
2021/04/05 07:36:04;;;;;;;13.57;4.33;;;6.40;99.90;;;;;;5054535;28;20207;-62
2021/04/05 07:38:40;;;;;;;17.73;4.63;;;6.40;99.90;;;;;;5067313;28;20191;-62
2021/04/05 07:41:15;;;;;;;15.57;4.37;;;6.40;99.90;;;;;;5067452;28;20195;-62
2021/04/05 07:44:01;;;;;;;19.57;4.07;;;6.50;99.90;;;;;;5064996;28;20306;-61
2021/04/05 07:46:35;;;;;;;16.87;4.30;;;6.50;99.90;;;;;;5070152;28;20282;-62
2021/04/05 07:49:13;;;;;;;15.27;3.73;;;6.50;99.90;;;;;;5067965;28;20192;-61
2021/04/05 07:51:53;;;;;;;19.40;4.73;;;6.50;99.90;;;;;;5070628;28;20230;-62
2021/04/05 07:54:23;;;;;;;26.00;5.10;;;6.50;99.90;;;;;;5070068;28;20765;-62
2021/04/05 07:57:07;;;;;;;21.80;4.77;;;6.60;99.90;;;;;;5071462;28;20246;-62
2021/04/05 07:59:46;;;;;;;17.63;4.73;;;6.60;99.90;;;;;;5070672;28;20282;-61
2021/04/05 08:02:28;;;;;;;17.70;4.63;;;6.50;99.90;;;;;;5071294;28;20205;-62
2021/04/05 08:05:05;;;;;;;19.20;4.40;;;6.50;99.90;;;;;;5066941;28;20199;-62
2021/04/05 08:07:49;;;;;;;5.93;2.90;;;6.50;99.90;;;;;;5068145;28;20200;-61
2021/04/05 08:10:22;;;;;;;6.73;2.30;;;6.30;99.90;;;;;;5069448;28;20242;-61
2021/04/05 08:12:55;;;;;;;5.90;1.80;;;6.10;99.90;;;;;;5073733;28;20223;-61
2021/04/05 08:15:30;;;;;;;3.10;2.10;;;5.70;99.90;;;;;;5064824;28;20263;-63
2021/04/05 08:18:24;;;;;;;4.20;1.70;;;5.50;99.90;;;;;;5071489;28;20191;-61
2021/04/05 08:20:56;;;;;;;6.20;2.13;;;5.40;99.90;;;;;;5073358;28;20216;-62
2021/04/05 08:23:36;;;;;;;13.20;2.60;;;5.20;99.90;;;;;;5070221;28;20235;-62
2021/04/05 08:26:13;;;;;;;11.17;2.40;;;5.10;99.90;;;;;;5066872;28;20282;-62
2021/04/05 08:28:49;;;;;;;10.43;2.40;;;5.10;99.90;;;;;;5065872;28;20689;-61
2021/04/05 08:31:39;;;;;;;7.23;2.63;;;5.00;99.90;;;;;;5068693;28;20200;-63
2021/04/05 08:34:30;;;;;;;11.87;2.30;;;5.00;99.90;;;;;;5079991;28;20643;-64
2021/04/05 08:37:14;;;;;;;15.90;3.20;;;5.00;99.90;;;;;;5062682;28;20200;-62
2021/04/05 08:39:59;;;;;;;17.27;3.27;;;5.00;99.90;;;;;;5067052;28;20272;-62
2021/04/05 08:42:31;;;;;;;18.30;3.60;;;5.00;99.90;;;;;;5065905;28;20216;-62
2021/04/05 08:45:08;;;;;;;21.97;3.23;;;4.90;99.90;;;;;;5070526;28;20196;-62
2021/04/05 08:47:38;;;;;;;13.67;3.50;;;4.90;99.90;;;;;;5083317;28;20226;-62
2021/04/05 08:50:10;;;;;;;13.90;3.40;;;5.00;99.90;;;;;;5077068;28;20223;-64
2021/04/05 08:52:40;;;;;;;21.20;4.40;;;4.90;99.90;;;;;;5067383;28;20293;-62
2021/04/05 08:55:14;;;;;;;19.93;4.53;;;5.00;99.90;;;;;;5076560;28;20191;-62
2021/04/05 08:57:49;;;;;;;20.03;3.30;;;5.00;99.90;;;;;;5063037;28;20225;-62
2021/04/05 09:00:18;;;;;;;14.60;3.40;;;4.90;99.90;;;;;;5067394;28;20658;-62
2021/04/05 09:02:48;;;;;;;26.00;3.83;;;4.90;99.90;;;;;;5061732;28;20227;-61
2021/04/05 09:05:20;;;;;;;35.47;4.60;;;4.70;99.90;;;;;;5071759;28;20204;-62
2021/04/05 09:08:02;;;;;;;17.33;3.23;;;4.80;99.90;;;;;;5060276;28;20192;-61
2021/04/05 09:10:33;;;;;;;16.17;3.57;;;4.80;99.90;;;;;;5069676;28;20231;-62
2021/04/05 09:13:07;;;;;;;14.73;3.53;;;4.80;99.90;;;;;;5072023;28;20191;-62
2021/04/05 09:16:01;;;;;;;9.97;2.70;;;4.80;99.90;;;;;;5066038;28;20231;-62
2021/04/05 09:18:55;;;;;;;13.57;2.97;;;4.80;99.90;;;;;;5062633;28;20234;-62
2021/04/05 09:21:53;;;;;;;13.37;3.03;;;4.80;99.90;;;;;;5045726;28;20224;-62
2021/04/05 09:24:41;;;;;;;19.40;3.73;;;4.90;99.90;;;;;;5027232;28;20667;-64
2021/04/05 09:27:42;;;;;;;13.47;3.13;;;4.90;99.90;;;;;;5071462;28;20194;-64
2021/04/05 09:30:31;;;;;;;12.33;3.47;;;5.00;99.90;;;;;;5069850;28;20287;-61
2021/04/05 09:33:36;;;;;;;17.97;4.00;;;5.10;99.90;;;;;;5063311;28;20180;-64
2021/04/05 09:36:15;;;;;;;12.97;3.93;;;5.10;99.90;;;;;;5069734;28;20674;-64
2021/04/05 09:39:18;;;;;;;21.40;3.50;;;5.00;99.90;;;;;;5068245;28;20206;-63
2021/04/05 09:42:06;;;;;;;16.40;4.10;;;4.90;99.90;;;;;;5068315;28;20698;-63
2021/04/05 09:44:50;;;;;;;15.87;3.80;;;4.90;99.90;;;;;;5066846;28;20206;-63
2021/04/05 09:47:44;;;;;;;14.67;3.67;;;4.90;99.90;;;;;;5062399;28;20306;-63
2021/04/05 09:50:24;;;;;;;10.33;3.03;;;5.00;99.90;;;;;;5071004;28;20230;-63
2021/04/05 09:53:27;;;;;;;16.27;3.43;;;4.90;99.90;;;;;;5065700;28;20191;-63
2021/04/05 09:55:59;;;;;;;10.13;2.83;;;5.10;99.90;;;;;;5070154;28;20756;-63
2021/04/05 09:58:30;;;;;;;15.23;3.20;;;5.30;99.90;;;;;;5065273;28;20253;-63
2021/04/05 10:01:05;;;;;;;10.27;2.97;;;5.60;99.90;;;;;;5064666;28;20208;-63
2021/04/05 10:03:41;;;;;;;15.07;3.03;;;5.80;99.90;;;;;;5064011;28;20222;-63
2021/04/05 10:06:11;;;;;;;14.13;3.23;;;5.90;99.90;;;;;;5064317;28;20301;-63
2021/04/05 10:08:41;;;;;;;12.23;2.90;;;5.90;99.90;;;;;;5066336;28;20652;-63
2021/04/05 10:11:10;;;;;;;9.80;2.77;;;5.80;99.90;;;;;;5067882;28;20736;-63
2021/04/05 10:13:44;;;;;;;12.87;3.00;;;5.60;99.90;;;;;;5068451;28;20230;-63
2021/04/05 10:16:16;;;;;;;14.33;3.10;;;5.60;99.90;;;;;;5066152;28;20219;-63
2021/04/05 10:18:49;;;;;;;12.80;3.17;;;5.70;99.90;;;;;;5065613;28;20690;-63
2021/04/05 10:21:18;;;;;;;14.03;2.50;;;5.80;99.90;;;;;;5066738;28;20219;-63
2021/04/05 10:23:50;;;;;;;9.13;2.97;;;6.00;99.90;;;;;;5064736;28;20271;-63
2021/04/05 10:26:19;;;;;;;9.50;2.73;;;6.20;99.90;;;;;;5066796;28;20693;-63
2021/04/05 10:28:48;;;;;;;9.63;2.67;;;6.40;99.90;;;;;;5074743;28;20199;-63
2021/04/05 10:31:22;;;;;;;11.97;2.87;;;6.40;99.90;;;;;;5070617;28;20193;-63
2021/04/05 10:34:12;;;;;;;9.97;2.70;;;6.30;99.90;;;;;;5078770;28;20218;-64
2021/04/05 10:36:44;;;;;;;11.77;2.77;;;6.20;99.90;;;;;;5067092;28;20191;-63
2021/04/05 10:39:12;;;;;;;8.77;2.33;;;6.10;99.90;;;;;;5064372;28;20192;-63
2021/04/05 10:41:48;;;;;;;10.20;2.43;;;6.30;99.90;;;;;;5064239;28;20219;-64
2021/04/05 10:44:16;;;;;;;12.10;2.67;;;6.50;99.90;;;;;;5067749;28;20195;-63
2021/04/05 10:46:49;;;;;;;18.07;3.37;;;6.60;99.90;;;;;;5060238;28;20219;-64
2021/04/05 10:49:17;;;;;;;14.80;3.13;;;6.50;99.90;;;;;;5063519;28;20245;-62
2021/04/05 10:51:49;;;;;;;15.67;3.37;;;6.30;99.90;;;;;;5064256;28;20658;-63
2021/04/05 10:54:24;;;;;;;16.07;3.80;;;6.00;99.90;;;;;;5062883;28;20184;-62
2021/04/05 10:56:56;;;;;;;12.23;3.43;;;5.70;99.90;;;;;;5059520;28;20226;-62
2021/04/05 10:59:46;;;;;;;15.43;2.83;;;5.50;99.90;;;;;;5060393;28;20197;-62
2021/04/05 11:02:20;;;;;;;13.57;2.97;;;5.20;99.90;;;;;;5060342;28;20231;-63
2021/04/05 11:04:54;;;;;;;10.37;2.83;;;5.10;99.90;;;;;;5062763;28;20857;-63
2021/04/05 11:07:23;;;;;;;14.03;3.27;;;5.30;99.90;;;;;;5060417;28;20245;-63
2021/04/05 11:09:54;;;;;;;11.70;2.63;;;5.60;99.90;;;;;;5060772;28;20287;-63
2021/04/05 11:12:23;;;;;;;13.93;3.43;;;6.70;99.90;;;;;;5061558;28;20268;-63
2021/04/05 11:14:52;;;;;;;17.87;3.43;;;7.70;99.90;;;;;;5065502;28;20281;-62
2021/04/05 11:17:24;;;;;;;13.43;3.27;;;7.80;99.90;;;;;;5065498;28;20196;-62
2021/04/05 11:19:54;;;;;;;14.30;2.70;;;8.10;99.90;;;;;;5067284;28;20196;-62
2021/04/05 11:22:27;;;;;;;15.43;2.87;;;8.50;99.90;;;;;;5068848;28;20215;-63
2021/04/05 11:25:00;;;;;;;10.90;2.93;;;8.50;99.90;;;;;;5064676;28;20220;-62
2021/04/05 11:27:29;;;;;;;13.30;3.20;;;8.10;99.90;;;;;;5069654;28;20295;-62
2021/04/05 11:30:00;;;;;;;11.03;3.00;;;7.70;99.90;;;;;;5069646;28;20283;-63
2021/04/05 11:32:29;;;;;;;8.57;2.80;;;7.70;99.90;;;;;;5062675;28;20604;-63
2021/04/05 11:34:58;;;;;;;10.87;3.13;;;7.40;99.90;;;;;;5066308;28;20291;-62
2021/04/05 11:37:33;;;;;;;12.77;3.27;;;7.40;99.90;;;;;;5065449;28;20199;-65
2021/04/05 11:40:04;;;;;;;5.87;2.37;;;7.70;99.90;;;;;;5067276;28;20287;-62
2021/04/05 11:42:34;;;;;;;6.57;2.60;;;8.00;99.90;;;;;;5064909;28;20705;-62
2021/04/05 11:45:27;;;;;;;11.73;2.77;;;8.10;99.90;;;;;;5065541;28;20188;-62
2021/04/05 11:47:57;;;;;;;10.80;2.70;;;8.20;99.90;;;;;;5064478;28;20223;-62
2021/04/05 11:50:27;;;;;;;12.40;3.00;;;8.20;99.90;;;;;;5066836;28;20200;-62
2021/04/05 11:52:58;;;;;;;12.93;3.40;;;8.20;99.90;;;;;;5065794;28;20188;-62
2021/04/05 11:55:29;;;;;;;10.13;2.93;;;8.00;99.90;;;;;;5067577;28;20235;-62
2021/04/05 11:58:01;;;;;;;11.13;2.77;;;7.60;99.90;;;;;;5063730;28;20651;-62
2021/04/05 12:00:33;;;;;;;7.80;3.17;;;7.30;99.90;;;;;;5065992;28;20248;-62
2021/04/05 12:03:12;;;;;;;13.23;2.63;;;7.40;99.90;;;;;;5064107;28;20211;-62
2021/04/05 12:05:43;;;;;;;9.57;2.50;;;8.20;99.90;;;;;;5061570;28;20717;-62
2021/04/05 12:08:14;;;;;;;8.70;2.60;;;9.40;99.90;;;;;;5065784;28;20201;-62
2021/04/05 12:10:46;;;;;;;14.63;3.30;;;9.30;99.90;;;;;;5065567;28;20235;-62
2021/04/05 12:13:17;;;;;;;9.47;3.00;;;8.70;99.90;;;;;;5062480;28;20200;-62
2021/04/05 12:15:47;;;;;;;14.10;2.70;;;8.10;99.90;;;;;;5058435;28;20232;-62
2021/04/05 12:18:21;;;;;;;13.30;2.73;;;7.80;99.90;;;;;;5056495;28;20192;-62
2021/04/05 12:20:58;;;;;;;10.00;2.50;;;7.70;99.90;;;;;;5058425;28;20187;-62
2021/04/05 12:23:33;;;;;;;7.33;2.20;;;8.30;99.90;;;;;;5060198;28;20231;-62
2021/04/05 12:26:01;;;;;;;5.70;2.13;;;9.00;99.90;;;;;;5058824;28;20527;-62
2021/04/05 12:28:35;;;;;;;6.97;2.63;;;9.60;99.90;;;;;;5058413;28;20284;-61
2021/04/05 12:31:05;;;;;;;9.80;2.50;;;9.70;99.90;;;;;;5061067;28;20191;-62
2021/04/05 12:33:58;;;;;;;8.10;2.03;;;9.60;99.90;;;;;;5057968;28;20204;-62
2021/04/05 12:36:33;;;;;;;5.80;2.17;;;9.30;99.90;;;;;;5077090;28;20429;-61
2021/04/05 12:39:05;;;;;;;4.13;1.83;;;9.20;99.90;;;;;;5067774;28;20195;-61
2021/04/05 12:41:36;;;;;;;9.87;2.30;;;9.30;99.90;;;;;;5070964;28;20199;-61
2021/04/05 12:44:06;;;;;;;6.30;2.10;;;9.00;99.90;;;;;;5067804;28;20204;-61
2021/04/05 12:46:35;;;;;;;8.33;2.20;;;9.00;99.90;;;;;;5063017;28;20192;-62
2021/04/05 12:49:04;;;;;;;7.87;2.47;;;9.30;99.90;;;;;;5064756;28;20692;-62
2021/04/05 12:51:32;;;;;;;8.43;2.53;;;9.60;99.90;;;;;;5069104;28;20204;-62
2021/04/05 12:54:05;;;;;;;5.80;2.53;;;10.10;99.90;;;;;;5074641;28;20553;-62
2021/04/05 12:56:34;;;;;;;7.80;1.90;;;10.40;99.90;;;;;;5067418;28;20192;-62
2021/04/05 12:59:02;;;;;;;3.60;2.10;;;10.50;99.70;;;;;;5074896;28;20196;-61
2021/04/05 13:01:35;;;;;;;9.13;2.30;;;10.40;99.90;;;;;;5069368;28;20647;-62
2021/04/05 13:04:07;;;;;;;7.37;2.10;;;10.50;99.90;;;;;;5069050;28;20783;-63
2021/04/05 13:06:42;;;;;;;7.00;2.27;;;10.40;99.90;;;;;;5068837;28;20701;-64
2021/04/05 13:09:14;;;;;;;3.43;1.90;;;10.10;99.20;;;;;;5066661;28;20189;-63
2021/04/05 13:11:48;;;;;;;4.67;2.27;;;9.70;98.70;;;;;;5071013;28;20193;-63
2021/04/05 13:14:20;;;;;;;5.80;2.30;;;9.40;97.90;;;;;;5068418;28;20183;-63
2021/04/05 13:16:53;;;;;;;5.50;2.10;;;9.40;99.20;;;;;;5069374;28;20248;-63